sensor_id;sensor_type;location;lat;lon;timestamp;temperature;humidity
51783;DHT22;37845;53.196;5.638;2022-10-13T00:01:40;11.30;99.90
51783;DHT22;37845;53.196;5.638;2022-10-13T00:04:06;11.30;99.90
51783;DHT22;37845;53.196;5.638;2022-10-13T00:06:32;11.30;99.90
51783;DHT22;37845;53.196;5.638;2022-10-13T00:08:57;11.30;99.90
51783;DHT22;37845;53.196;5.638;2022-10-13T00:11:24;11.30;99.90
51783;DHT22;37845;53.196;5.638;2022-10-13T00:13:50;11.30;99.90
51783;DHT22;37845;53.196;5.638;2022-10-13T00:16:17;11.30;99.90
51783;DHT22;37845;53.196;5.638;2022-10-13T00:18:43;11.30;99.90
51783;DHT22;37845;53.196;5.638;2022-10-13T00:21:09;11.30;99.90
51783;DHT22;37845;53.196;5.638;2022-10-13T00:23:35;11.30;99.90
51783;DHT22;37845;53.196;5.638;2022-10-13T00:26:02;11.30;99.90
51783;DHT22;37845;53.196;5.638;2022-10-13T00:28:28;11.30;99.90
51783;DHT22;37845;53.196;5.638;2022-10-13T00:30:54;11.80;99.90
51783;DHT22;37845;53.196;5.638;2022-10-13T00:33:20;11.30;99.90
51783;DHT22;37845;53.196;5.638;2022-10-13T00:35:46;11.30;99.90
51783;DHT22;37845;53.196;5.638;2022-10-13T00:38:12;11.30;99.90
51783;DHT22;37845;53.196;5.638;2022-10-13T00:43:26;11.30;99.90
51783;DHT22;37845;53.196;5.638;2022-10-13T00:45:53;11.30;99.90
51783;DHT22;37845;53.196;5.638;2022-10-13T00:48:19;11.30;99.90
51783;DHT22;37845;53.196;5.638;2022-10-13T00:50:46;11.60;99.90
51783;DHT22;37845;53.196;5.638;2022-10-13T00:53:11;11.30;99.90
51783;DHT22;37845;53.196;5.638;2022-10-13T00:55:38;11.30;99.90
51783;DHT22;37845;53.196;5.638;2022-10-13T00:58:04;11.30;99.90
51783;DHT22;37845;53.196;5.638;2022-10-13T01:00:30;11.30;99.90
51783;DHT22;37845;53.196;5.638;2022-10-13T01:02:57;11.30;99.90
51783;DHT22;37845;53.196;5.638;2022-10-13T01:05:22;11.30;99.90
51783;DHT22;37845;53.196;5.638;2022-10-13T01:07:48;11.30;99.90
51783;DHT22;37845;53.196;5.638;2022-10-13T01:10:16;11.30;99.90
51783;DHT22;37845;53.196;5.638;2022-10-13T01:12:51;11.30;99.90
51783;DHT22;37845;53.196;5.638;2022-10-13T01:15:25;11.30;99.90
51783;DHT22;37845;53.196;5.638;2022-10-13T01:18:06;11.70;99.90
51783;DHT22;37845;53.196;5.638;2022-10-13T01:20:41;11.30;99.90
51783;DHT22;37845;53.196;5.638;2022-10-13T01:31:24;11.30;99.90
51783;DHT22;37845;53.196;5.638;2022-10-13T01:33:56;11.30;99.90
51783;DHT22;37845;53.196;5.638;2022-10-13T01:36:25;11.30;99.90
51783;DHT22;37845;53.196;5.638;2022-10-13T01:39:05;11.30;99.90
51783;DHT22;37845;53.196;5.638;2022-10-13T01:44:12;11.30;99.90
51783;DHT22;37845;53.196;5.638;2022-10-13T01:46:40;11.20;99.90
51783;DHT22;37845;53.196;5.638;2022-10-13T01:49:11;11.30;99.90
51783;DHT22;37845;53.196;5.638;2022-10-13T01:51:37;11.30;99.90
51783;DHT22;37845;53.196;5.638;2022-10-13T01:54:03;11.30;99.90
51783;DHT22;37845;53.196;5.638;2022-10-13T01:56:28;11.30;99.90
51783;DHT22;37845;53.196;5.638;2022-10-13T01:58:55;11.30;99.90
51783;DHT22;37845;53.196;5.638;2022-10-13T02:11:32;11.30;99.90
51783;DHT22;37845;53.196;5.638;2022-10-13T02:14:03;11.30;99.90
51783;DHT22;37845;53.196;5.638;2022-10-13T02:16:33;11.30;99.90
51783;DHT22;37845;53.196;5.638;2022-10-13T02:18:59;11.30;99.90
51783;DHT22;37845;53.196;5.638;2022-10-13T02:21:26;11.60;99.90
51783;DHT22;37845;53.196;5.638;2022-10-13T02:23:52;11.30;99.90
51783;DHT22;37845;53.196;5.638;2022-10-13T02:26:18;11.20;99.90
51783;DHT22;37845;53.196;5.638;2022-10-13T02:28:43;11.20;99.90
51783;DHT22;37845;53.196;5.638;2022-10-13T02:31:09;11.20;99.90
51783;DHT22;37845;53.196;5.638;2022-10-13T02:33:35;11.20;99.90
51783;DHT22;37845;53.196;5.638;2022-10-13T02:36:00;11.20;99.90
51783;DHT22;37845;53.196;5.638;2022-10-13T02:38:26;11.20;99.90
51783;DHT22;37845;53.196;5.638;2022-10-13T02:40:51;11.20;99.90
51783;DHT22;37845;53.196;5.638;2022-10-13T02:43:19;11.10;99.90
51783;DHT22;37845;53.196;5.638;2022-10-13T02:45:44;11.20;99.90
51783;DHT22;37845;53.196;5.638;2022-10-13T02:48:10;11.10;99.90
51783;DHT22;37845;53.196;5.638;2022-10-13T02:50:35;11.10;99.90
51783;DHT22;37845;53.196;5.638;2022-10-13T02:53:01;11.10;99.90
51783;DHT22;37845;53.196;5.638;2022-10-13T02:55:27;11.10;99.90
51783;DHT22;37845;53.196;5.638;2022-10-13T02:57:52;11.10;99.90
51783;DHT22;37845;53.196;5.638;2022-10-13T03:00:18;11.10;99.90
51783;DHT22;37845;53.196;5.638;2022-10-13T03:02:44;11.10;99.90
51783;DHT22;37845;53.196;5.638;2022-10-13T03:05:09;11.10;99.90
51783;DHT22;37845;53.196;5.638;2022-10-13T03:07:35;11.10;99.90
51783;DHT22;37845;53.196;5.638;2022-10-13T03:10:01;11.10;99.90
51783;DHT22;37845;53.196;5.638;2022-10-13T03:12:26;11.10;99.90
51783;DHT22;37845;53.196;5.638;2022-10-13T03:14:52;11.10;99.90
51783;DHT22;37845;53.196;5.638;2022-10-13T03:17:17;11.10;99.90
51783;DHT22;37845;53.196;5.638;2022-10-13T03:19:43;11.20;99.90
51783;DHT22;37845;53.196;5.638;2022-10-13T03:22:09;11.20;99.90
51783;DHT22;37845;53.196;5.638;2022-10-13T03:24:34;11.20;99.90
51783;DHT22;37845;53.196;5.638;2022-10-13T03:27:00;11.20;99.90
51783;DHT22;37845;53.196;5.638;2022-10-13T03:29:26;11.20;99.90
51783;DHT22;37845;53.196;5.638;2022-10-13T03:31:51;11.20;99.90
51783;DHT22;37845;53.196;5.638;2022-10-13T03:34:17;11.20;99.90
51783;DHT22;37845;53.196;5.638;2022-10-13T03:36:44;11.20;99.90
51783;DHT22;37845;53.196;5.638;2022-10-13T03:39:10;11.20;99.90
51783;DHT22;37845;53.196;5.638;2022-10-13T03:41:35;11.20;99.90
51783;DHT22;37845;53.196;5.638;2022-10-13T03:44:01;11.20;99.90
51783;DHT22;37845;53.196;5.638;2022-10-13T03:46:28;11.20;99.90
51783;DHT22;37845;53.196;5.638;2022-10-13T03:48:53;11.20;99.90
51783;DHT22;37845;53.196;5.638;2022-10-13T03:51:20;11.20;99.90
51783;DHT22;37845;53.196;5.638;2022-10-13T03:53:46;11.20;99.90
51783;DHT22;37845;53.196;5.638;2022-10-13T03:56:16;11.20;99.90
51783;DHT22;37845;53.196;5.638;2022-10-13T03:58:42;11.20;99.90
51783;DHT22;37845;53.196;5.638;2022-10-13T04:01:09;11.00;99.90
51783;DHT22;37845;53.196;5.638;2022-10-13T04:03:34;11.20;99.90
51783;DHT22;37845;53.196;5.638;2022-10-13T04:06:01;11.20;99.90
51783;DHT22;37845;53.196;5.638;2022-10-13T04:08:27;11.20;99.90
51783;DHT22;37845;53.196;5.638;2022-10-13T04:11:03;11.20;99.90
51783;DHT22;37845;53.196;5.638;2022-10-13T04:13:29;11.20;99.90
51783;DHT22;37845;53.196;5.638;2022-10-13T04:15:55;11.20;99.90
51783;DHT22;37845;53.196;5.638;2022-10-13T04:18:20;11.20;99.90
51783;DHT22;37845;53.196;5.638;2022-10-13T04:20:46;11.30;99.90
51783;DHT22;37845;53.196;5.638;2022-10-13T04:23:12;11.30;99.90
51783;DHT22;37845;53.196;5.638;2022-10-13T04:25:38;11.30;99.90
51783;DHT22;37845;53.196;5.638;2022-10-13T04:28:07;11.20;99.90
51783;DHT22;37845;53.196;5.638;2022-10-13T04:30:33;11.30;99.90
51783;DHT22;37845;53.196;5.638;2022-10-13T04:32:59;11.30;99.90
51783;DHT22;37845;53.196;5.638;2022-10-13T04:35:25;11.30;99.90
51783;DHT22;37845;53.196;5.638;2022-10-13T04:37:50;11.30;99.90
51783;DHT22;37845;53.196;5.638;2022-10-13T04:40:16;11.30;99.90
51783;DHT22;37845;53.196;5.638;2022-10-13T04:42:42;11.40;99.90
51783;DHT22;37845;53.196;5.638;2022-10-13T04:45:08;11.30;99.90
51783;DHT22;37845;53.196;5.638;2022-10-13T04:47:34;11.40;99.90
51783;DHT22;37845;53.196;5.638;2022-10-13T04:50:01;11.40;99.90
51783;DHT22;37845;53.196;5.638;2022-10-13T04:52:27;11.40;99.90
51783;DHT22;37845;53.196;5.638;2022-10-13T04:54:52;11.40;99.90
51783;DHT22;37845;53.196;5.638;2022-10-13T04:57:18;11.40;99.90
51783;DHT22;37845;53.196;5.638;2022-10-13T04:59:44;11.30;99.90
51783;DHT22;37845;53.196;5.638;2022-10-13T05:02:09;10.90;99.90
51783;DHT22;37845;53.196;5.638;2022-10-13T05:04:35;11.30;99.90
51783;DHT22;37845;53.196;5.638;2022-10-13T05:07:01;11.30;99.90
51783;DHT22;37845;53.196;5.638;2022-10-13T05:09:26;11.30;99.90
51783;DHT22;37845;53.196;5.638;2022-10-13T05:11:52;11.30;99.90
51783;DHT22;37845;53.196;5.638;2022-10-13T05:14:20;11.30;99.90
51783;DHT22;37845;53.196;5.638;2022-10-13T05:16:45;12.00;99.90
51783;DHT22;37845;53.196;5.638;2022-10-13T05:19:11;11.40;99.90
51783;DHT22;37845;53.196;5.638;2022-10-13T05:21:37;11.40;99.90
51783;DHT22;37845;53.196;5.638;2022-10-13T05:24:03;11.40;99.90
51783;DHT22;37845;53.196;5.638;2022-10-13T05:26:30;11.40;99.90
51783;DHT22;37845;53.196;5.638;2022-10-13T05:28:59;11.30;99.90
51783;DHT22;37845;53.196;5.638;2022-10-13T05:31:26;11.30;99.90
51783;DHT22;37845;53.196;5.638;2022-10-13T05:33:52;11.40;99.90
51783;DHT22;37845;53.196;5.638;2022-10-13T05:36:19;11.40;99.90
51783;DHT22;37845;53.196;5.638;2022-10-13T05:38:49;11.30;99.90
51783;DHT22;37845;53.196;5.638;2022-10-13T05:41:16;11.30;99.90
51783;DHT22;37845;53.196;5.638;2022-10-13T05:43:42;11.30;99.90
51783;DHT22;37845;53.196;5.638;2022-10-13T05:46:07;11.30;99.90
51783;DHT22;37845;53.196;5.638;2022-10-13T05:48:33;11.30;99.90
51783;DHT22;37845;53.196;5.638;2022-10-13T05:51:00;11.30;99.90
51783;DHT22;37845;53.196;5.638;2022-10-13T05:53:27;11.30;99.90
51783;DHT22;37845;53.196;5.638;2022-10-13T05:55:53;11.30;99.90
51783;DHT22;37845;53.196;5.638;2022-10-13T05:58:21;11.30;99.90
51783;DHT22;37845;53.196;5.638;2022-10-13T06:00:47;11.30;99.90
51783;DHT22;37845;53.196;5.638;2022-10-13T06:03:14;11.30;99.90
51783;DHT22;37845;53.196;5.638;2022-10-13T06:05:42;11.30;99.90
51783;DHT22;37845;53.196;5.638;2022-10-13T06:08:09;11.30;99.90
51783;DHT22;37845;53.196;5.638;2022-10-13T06:10:35;11.30;99.90
51783;DHT22;37845;53.196;5.638;2022-10-13T06:13:01;11.30;99.90
51783;DHT22;37845;53.196;5.638;2022-10-13T06:15:27;11.40;99.90
51783;DHT22;37845;53.196;5.638;2022-10-13T06:17:52;11.40;99.90
51783;DHT22;37845;53.196;5.638;2022-10-13T06:20:18;11.40;99.90
51783;DHT22;37845;53.196;5.638;2022-10-13T06:22:44;11.40;99.90
51783;DHT22;37845;53.196;5.638;2022-10-13T06:25:10;11.40;99.90
51783;DHT22;37845;53.196;5.638;2022-10-13T06:27:36;11.40;99.90
51783;DHT22;37845;53.196;5.638;2022-10-13T06:30:02;11.40;99.90
51783;DHT22;37845;53.196;5.638;2022-10-13T06:32:28;11.40;99.90
51783;DHT22;37845;53.196;5.638;2022-10-13T06:34:54;11.40;99.90
51783;DHT22;37845;53.196;5.638;2022-10-13T06:37:19;11.80;99.90
51783;DHT22;37845;53.196;5.638;2022-10-13T06:39:45;11.50;99.90
51783;DHT22;37845;53.196;5.638;2022-10-13T06:42:11;11.50;99.90
51783;DHT22;37845;53.196;5.638;2022-10-13T06:44:37;11.50;99.90
51783;DHT22;37845;53.196;5.638;2022-10-13T06:47:02;11.50;99.90
51783;DHT22;37845;53.196;5.638;2022-10-13T06:49:28;11.50;99.90
51783;DHT22;37845;53.196;5.638;2022-10-13T06:51:54;11.60;99.90
51783;DHT22;37845;53.196;5.638;2022-10-13T06:54:19;11.60;99.90
51783;DHT22;37845;53.196;5.638;2022-10-13T06:56:45;11.70;99.90
51783;DHT22;37845;53.196;5.638;2022-10-13T06:59:11;11.70;99.90
51783;DHT22;37845;53.196;5.638;2022-10-13T07:01:36;11.70;99.90
51783;DHT22;37845;53.196;5.638;2022-10-13T07:04:02;11.70;99.90
51783;DHT22;37845;53.196;5.638;2022-10-13T07:06:28;11.80;99.90
51783;DHT22;37845;53.196;5.638;2022-10-13T07:08:53;11.80;99.90
51783;DHT22;37845;53.196;5.638;2022-10-13T07:11:19;11.80;99.90
51783;DHT22;37845;53.196;5.638;2022-10-13T07:13:44;11.80;99.90
51783;DHT22;37845;53.196;5.638;2022-10-13T07:16:10;11.90;99.90
51783;DHT22;37845;53.196;5.638;2022-10-13T07:18:36;11.90;99.90
51783;DHT22;37845;53.196;5.638;2022-10-13T07:21:01;12.00;99.90
51783;DHT22;37845;53.196;5.638;2022-10-13T07:23:27;12.00;99.90
51783;DHT22;37845;53.196;5.638;2022-10-13T07:25:53;12.10;99.90
51783;DHT22;37845;53.196;5.638;2022-10-13T07:28:21;12.10;99.90
51783;DHT22;37845;53.196;5.638;2022-10-13T07:30:47;12.20;99.90
51783;DHT22;37845;53.196;5.638;2022-10-13T07:33:13;12.20;99.90
51783;DHT22;37845;53.196;5.638;2022-10-13T07:35:38;12.20;99.90
51783;DHT22;37845;53.196;5.638;2022-10-13T07:38:05;12.20;99.90
51783;DHT22;37845;53.196;5.638;2022-10-13T07:40:30;12.30;99.90
51783;DHT22;37845;53.196;5.638;2022-10-13T07:42:56;12.30;99.90
51783;DHT22;37845;53.196;5.638;2022-10-13T07:45:22;12.30;99.90
51783;DHT22;37845;53.196;5.638;2022-10-13T07:47:48;12.40;99.90
51783;DHT22;37845;53.196;5.638;2022-10-13T07:50:13;12.40;99.90
51783;DHT22;37845;53.196;5.638;2022-10-13T07:52:39;12.40;99.90
51783;DHT22;37845;53.196;5.638;2022-10-13T07:55:05;12.50;99.90
51783;DHT22;37845;53.196;5.638;2022-10-13T07:57:31;12.50;99.90
51783;DHT22;37845;53.196;5.638;2022-10-13T07:59:56;12.50;99.90
51783;DHT22;37845;53.196;5.638;2022-10-13T08:02:22;12.50;99.90
51783;DHT22;37845;53.196;5.638;2022-10-13T08:04:47;12.60;99.90
51783;DHT22;37845;53.196;5.638;2022-10-13T08:07:13;12.60;99.90
51783;DHT22;37845;53.196;5.638;2022-10-13T08:09:40;12.60;99.90
51783;DHT22;37845;53.196;5.638;2022-10-13T08:12:06;12.70;99.90
51783;DHT22;37845;53.196;5.638;2022-10-13T08:14:32;12.70;99.90
51783;DHT22;37845;53.196;5.638;2022-10-13T08:16:57;12.70;99.90
51783;DHT22;37845;53.196;5.638;2022-10-13T08:19:23;12.80;99.90
51783;DHT22;37845;53.196;5.638;2022-10-13T08:21:51;12.80;99.90
51783;DHT22;37845;53.196;5.638;2022-10-13T08:24:17;13.50;99.90
51783;DHT22;37845;53.196;5.638;2022-10-13T08:26:44;12.80;99.90
51783;DHT22;37845;53.196;5.638;2022-10-13T08:29:09;12.90;99.90
51783;DHT22;37845;53.196;5.638;2022-10-13T08:31:35;12.90;99.90
51783;DHT22;37845;53.196;5.638;2022-10-13T08:34:01;12.90;99.90
51783;DHT22;37845;53.196;5.638;2022-10-13T08:36:26;12.90;99.90
51783;DHT22;37845;53.196;5.638;2022-10-13T08:38:52;12.90;99.90
51783;DHT22;37845;53.196;5.638;2022-10-13T08:41:19;12.90;99.90
51783;DHT22;37845;53.196;5.638;2022-10-13T08:43:50;12.90;99.90
51783;DHT22;37845;53.196;5.638;2022-10-13T08:46:24;13.00;99.90
51783;DHT22;37845;53.196;5.638;2022-10-13T08:48:50;13.00;99.90
51783;DHT22;37845;53.196;5.638;2022-10-13T08:51:16;13.10;99.90
51783;DHT22;37845;53.196;5.638;2022-10-13T08:53:42;13.10;99.90
51783;DHT22;37845;53.196;5.638;2022-10-13T08:56:13;13.20;99.90
51783;DHT22;37845;53.196;5.638;2022-10-13T08:58:40;13.70;99.90
51783;DHT22;37845;53.196;5.638;2022-10-13T09:03:43;13.20;99.90
51783;DHT22;37845;53.196;5.638;2022-10-13T09:06:10;13.20;99.90
51783;DHT22;37845;53.196;5.638;2022-10-13T09:08:47;13.30;99.90
51783;DHT22;37845;53.196;5.638;2022-10-13T09:11:15;13.30;99.90
51783;DHT22;37845;53.196;5.638;2022-10-13T09:13:41;13.30;99.90
51783;DHT22;37845;53.196;5.638;2022-10-13T09:16:06;13.30;99.90
51783;DHT22;37845;53.196;5.638;2022-10-13T09:18:32;13.30;99.90
51783;DHT22;37845;53.196;5.638;2022-10-13T09:24:04;13.30;99.90
51783;DHT22;37845;53.196;5.638;2022-10-13T09:26:29;13.30;99.90
51783;DHT22;37845;53.196;5.638;2022-10-13T09:28:55;13.30;99.90
51783;DHT22;37845;53.196;5.638;2022-10-13T09:31:25;13.60;99.90
51783;DHT22;37845;53.196;5.638;2022-10-13T09:33:59;13.40;99.90
51783;DHT22;37845;53.196;5.638;2022-10-13T09:36:25;13.40;99.90
51783;DHT22;37845;53.196;5.638;2022-10-13T09:39:04;13.40;99.90
51783;DHT22;37845;53.196;5.638;2022-10-13T09:41:30;13.40;99.90
51783;DHT22;37845;53.196;5.638;2022-10-13T09:43:57;13.50;99.90
51783;DHT22;37845;53.196;5.638;2022-10-13T09:48:53;13.50;99.90
51783;DHT22;37845;53.196;5.638;2022-10-13T09:51:29;13.60;99.90
51783;DHT22;37845;53.196;5.638;2022-10-13T09:53:57;13.60;99.90
51783;DHT22;37845;53.196;5.638;2022-10-13T09:56:27;13.60;99.90
51783;DHT22;37845;53.196;5.638;2022-10-13T10:01:28;13.60;99.90
51783;DHT22;37845;53.196;5.638;2022-10-13T10:03:55;13.70;99.90
51783;DHT22;37845;53.196;5.638;2022-10-13T10:06:21;13.70;99.90
51783;DHT22;37845;53.196;5.638;2022-10-13T10:11:49;13.80;99.90
51783;DHT22;37845;53.196;5.638;2022-10-13T10:14:26;13.80;99.90
51783;DHT22;37845;53.196;5.638;2022-10-13T10:16:56;13.70;99.90
51783;DHT22;37845;53.196;5.638;2022-10-13T10:19:25;13.80;99.90
51783;DHT22;37845;53.196;5.638;2022-10-13T10:27:12;13.80;99.90
51783;DHT22;37845;53.196;5.638;2022-10-13T10:29:50;13.80;99.90
51783;DHT22;37845;53.196;5.638;2022-10-13T10:32:35;13.70;99.90
51783;DHT22;37845;53.196;5.638;2022-10-13T10:45:22;13.90;99.90
51783;DHT22;37845;53.196;5.638;2022-10-13T10:47:50;13.90;99.90
51783;DHT22;37845;53.196;5.638;2022-10-13T10:50:17;14.00;99.90
51783;DHT22;37845;53.196;5.638;2022-10-13T10:55:26;14.00;99.90
51783;DHT22;37845;53.196;5.638;2022-10-13T10:58:31;14.10;99.90
51783;DHT22;37845;53.196;5.638;2022-10-13T11:00:56;14.10;99.90
51783;DHT22;37845;53.196;5.638;2022-10-13T11:06:43;14.10;99.90
51783;DHT22;37845;53.196;5.638;2022-10-13T11:08:50;14.10;99.90
51783;DHT22;37845;53.196;5.638;2022-10-13T11:13:52;14.20;99.90
51783;DHT22;37845;53.196;5.638;2022-10-13T11:16:34;14.20;99.90
51783;DHT22;37845;53.196;5.638;2022-10-13T11:19:04;14.30;99.90
51783;DHT22;37845;53.196;5.638;2022-10-13T11:32:39;14.30;99.90
51783;DHT22;37845;53.196;5.638;2022-10-13T11:37:47;14.30;99.90
51783;DHT22;37845;53.196;5.638;2022-10-13T11:46:45;14.40;99.90
51783;DHT22;37845;53.196;5.638;2022-10-13T11:51:12;14.40;99.90
51783;DHT22;37845;53.196;5.638;2022-10-13T11:53:47;14.50;99.90
51783;DHT22;37845;53.196;5.638;2022-10-13T11:58:59;14.50;99.90
51783;DHT22;37845;53.196;5.638;2022-10-13T12:01:24;14.50;99.90
51783;DHT22;37845;53.196;5.638;2022-10-13T12:03:50;14.50;99.90
51783;DHT22;37845;53.196;5.638;2022-10-13T12:06:29;14.50;99.90
51783;DHT22;37845;53.196;5.638;2022-10-13T12:08:59;14.60;99.90
51783;DHT22;37845;53.196;5.638;2022-10-13T12:11:34;14.60;99.90
51783;DHT22;37845;53.196;5.638;2022-10-13T12:14:00;14.60;99.90
51783;DHT22;37845;53.196;5.638;2022-10-13T12:16:27;14.60;99.90
51783;DHT22;37845;53.196;5.638;2022-10-13T12:19:04;14.60;99.90
51783;DHT22;37845;53.196;5.638;2022-10-13T12:21:30;14.70;99.90
51783;DHT22;37845;53.196;5.638;2022-10-13T12:24:04;14.70;99.90
51783;DHT22;37845;53.196;5.638;2022-10-13T12:26:30;14.80;99.90
51783;DHT22;37845;53.196;5.638;2022-10-13T12:29:02;14.80;99.90
51783;DHT22;37845;53.196;5.638;2022-10-13T12:31:45;14.80;99.90
51783;DHT22;37845;53.196;5.638;2022-10-13T12:34:27;14.80;99.90
51783;DHT22;37845;53.196;5.638;2022-10-13T12:37:00;14.90;99.90
51783;DHT22;37845;53.196;5.638;2022-10-13T12:39:29;14.80;99.90
51783;DHT22;37845;53.196;5.638;2022-10-13T12:41:56;14.80;99.90
51783;DHT22;37845;53.196;5.638;2022-10-13T12:44:31;14.80;99.90
51783;DHT22;37845;53.196;5.638;2022-10-13T12:46:58;14.80;99.90
51783;DHT22;37845;53.196;5.638;2022-10-13T12:51:51;14.90;99.90
51783;DHT22;37845;53.196;5.638;2022-10-13T12:54:25;14.90;99.90
51783;DHT22;37845;53.196;5.638;2022-10-13T12:56:52;14.90;99.90
51783;DHT22;37845;53.196;5.638;2022-10-13T12:59:19;14.90;99.90
51783;DHT22;37845;53.196;5.638;2022-10-13T13:01:51;14.90;99.90
51783;DHT22;37845;53.196;5.638;2022-10-13T13:04:25;14.90;99.90
51783;DHT22;37845;53.196;5.638;2022-10-13T13:06:56;14.90;99.90
51783;DHT22;37845;53.196;5.638;2022-10-13T13:09:22;14.90;99.90
51783;DHT22;37845;53.196;5.638;2022-10-13T13:12:00;14.90;99.90
51783;DHT22;37845;53.196;5.638;2022-10-13T13:14:33;14.90;99.90
51783;DHT22;37845;53.196;5.638;2022-10-13T13:19:32;14.90;99.90
51783;DHT22;37845;53.196;5.638;2022-10-13T13:21:58;14.90;99.90
51783;DHT22;37845;53.196;5.638;2022-10-13T13:24:24;14.90;99.90
51783;DHT22;37845;53.196;5.638;2022-10-13T13:26:49;14.90;99.90
51783;DHT22;37845;53.196;5.638;2022-10-13T13:29:15;14.90;99.90
51783;DHT22;37845;53.196;5.638;2022-10-13T13:31:40;14.90;99.90
51783;DHT22;37845;53.196;5.638;2022-10-13T13:34:06;14.90;99.90
51783;DHT22;37845;53.196;5.638;2022-10-13T13:36:32;15.00;99.90
51783;DHT22;37845;53.196;5.638;2022-10-13T13:38:57;15.60;99.90
51783;DHT22;37845;53.196;5.638;2022-10-13T13:41:23;15.00;99.90
51783;DHT22;37845;53.196;5.638;2022-10-13T13:43:52;14.90;99.90
51783;DHT22;37845;53.196;5.638;2022-10-13T13:46:18;14.90;99.90
51783;DHT22;37845;53.196;5.638;2022-10-13T13:48:45;14.90;99.90
51783;DHT22;37845;53.196;5.638;2022-10-13T13:51:10;15.00;99.90
51783;DHT22;37845;53.196;5.638;2022-10-13T13:53:36;14.90;99.90
51783;DHT22;37845;53.196;5.638;2022-10-13T13:56:02;15.00;99.90
51783;DHT22;37845;53.196;5.638;2022-10-13T13:58:28;15.00;99.90
51783;DHT22;37845;53.196;5.638;2022-10-13T14:00:53;15.00;99.90
51783;DHT22;37845;53.196;5.638;2022-10-13T14:03:19;15.00;99.90
51783;DHT22;37845;53.196;5.638;2022-10-13T14:05:44;14.90;99.90
51783;DHT22;37845;53.196;5.638;2022-10-13T14:08:10;15.00;99.90
51783;DHT22;37845;53.196;5.638;2022-10-13T14:10:37;14.90;99.90
51783;DHT22;37845;53.196;5.638;2022-10-13T14:13:03;15.00;99.90
51783;DHT22;37845;53.196;5.638;2022-10-13T14:15:29;14.90;99.90
51783;DHT22;37845;53.196;5.638;2022-10-13T14:17:54;14.90;99.90
51783;DHT22;37845;53.196;5.638;2022-10-13T14:20:20;14.90;99.90
51783;DHT22;37845;53.196;5.638;2022-10-13T14:22:46;14.90;99.90
51783;DHT22;37845;53.196;5.638;2022-10-13T14:25:12;14.90;99.90
51783;DHT22;37845;53.196;5.638;2022-10-13T14:27:37;14.80;99.90
51783;DHT22;37845;53.196;5.638;2022-10-13T14:30:04;14.90;99.90
51783;DHT22;37845;53.196;5.638;2022-10-13T14:32:30;14.80;99.90
51783;DHT22;37845;53.196;5.638;2022-10-13T14:34:56;14.80;99.90
51783;DHT22;37845;53.196;5.638;2022-10-13T14:37:21;14.90;99.90
51783;DHT22;37845;53.196;5.638;2022-10-13T14:39:47;14.90;99.90
51783;DHT22;37845;53.196;5.638;2022-10-13T14:42:13;14.90;99.90
51783;DHT22;37845;53.196;5.638;2022-10-13T14:44:38;14.90;99.90
51783;DHT22;37845;53.196;5.638;2022-10-13T14:47:04;14.90;99.90
51783;DHT22;37845;53.196;5.638;2022-10-13T14:49:29;14.90;99.90
51783;DHT22;37845;53.196;5.638;2022-10-13T14:51:55;14.90;99.90
51783;DHT22;37845;53.196;5.638;2022-10-13T14:54:20;15.20;99.90
51783;DHT22;37845;53.196;5.638;2022-10-13T14:56:46;15.00;99.90
51783;DHT22;37845;53.196;5.638;2022-10-13T14:59:12;15.00;99.90
51783;DHT22;37845;53.196;5.638;2022-10-13T15:01:38;15.00;99.90
51783;DHT22;37845;53.196;5.638;2022-10-13T15:04:04;15.00;99.90
51783;DHT22;37845;53.196;5.638;2022-10-13T15:06:30;15.00;99.90
51783;DHT22;37845;53.196;5.638;2022-10-13T15:08:56;15.00;99.90
51783;DHT22;37845;53.196;5.638;2022-10-13T15:11:22;15.00;99.90
51783;DHT22;37845;53.196;5.638;2022-10-13T15:13:47;15.00;99.90
51783;DHT22;37845;53.196;5.638;2022-10-13T15:16:17;15.00;99.90
51783;DHT22;37845;53.196;5.638;2022-10-13T15:18:43;15.00;99.90
51783;DHT22;37845;53.196;5.638;2022-10-13T15:21:09;15.00;99.90
51783;DHT22;37845;53.196;5.638;2022-10-13T15:23:34;15.10;99.90
51783;DHT22;37845;53.196;5.638;2022-10-13T15:26:00;15.10;99.90
51783;DHT22;37845;53.196;5.638;2022-10-13T15:28:27;15.00;99.90
51783;DHT22;37845;53.196;5.638;2022-10-13T15:30:54;15.00;99.90
51783;DHT22;37845;53.196;5.638;2022-10-13T15:33:20;15.00;99.90
51783;DHT22;37845;53.196;5.638;2022-10-13T15:35:46;14.90;99.90
51783;DHT22;37845;53.196;5.638;2022-10-13T15:38:12;14.90;99.90
51783;DHT22;37845;53.196;5.638;2022-10-13T15:40:41;14.90;99.90
51783;DHT22;37845;53.196;5.638;2022-10-13T15:43:07;14.80;99.90
51783;DHT22;37845;53.196;5.638;2022-10-13T15:45:32;14.80;99.90
51783;DHT22;37845;53.196;5.638;2022-10-13T15:47:58;14.80;99.90
51783;DHT22;37845;53.196;5.638;2022-10-13T15:50:24;14.80;99.90
51783;DHT22;37845;53.196;5.638;2022-10-13T15:52:50;15.20;99.90
51783;DHT22;37845;53.196;5.638;2022-10-13T15:55:16;15.00;99.90
51783;DHT22;37845;53.196;5.638;2022-10-13T15:57:42;15.00;99.90
51783;DHT22;37845;53.196;5.638;2022-10-13T16:00:08;15.10;99.90
51783;DHT22;37845;53.196;5.638;2022-10-13T16:02:35;15.20;99.90
51783;DHT22;37845;53.196;5.638;2022-10-13T16:05:00;15.20;99.90
51783;DHT22;37845;53.196;5.638;2022-10-13T16:07:32;15.20;99.90
51783;DHT22;37845;53.196;5.638;2022-10-13T16:09:58;15.20;99.90
51783;DHT22;37845;53.196;5.638;2022-10-13T16:12:24;15.20;99.90
51783;DHT22;37845;53.196;5.638;2022-10-13T16:14:50;15.10;99.90
51783;DHT22;37845;53.196;5.638;2022-10-13T16:17:15;15.20;99.90
51783;DHT22;37845;53.196;5.638;2022-10-13T16:19:41;15.20;99.90
51783;DHT22;37845;53.196;5.638;2022-10-13T16:22:06;15.10;99.90
51783;DHT22;37845;53.196;5.638;2022-10-13T16:24:32;15.00;99.90
51783;DHT22;37845;53.196;5.638;2022-10-13T16:26:58;14.90;99.90
51783;DHT22;37845;53.196;5.638;2022-10-13T16:29:24;14.90;99.90
51783;DHT22;37845;53.196;5.638;2022-10-13T16:31:50;14.90;99.90
51783;DHT22;37845;53.196;5.638;2022-10-13T16:34:15;14.90;99.90
51783;DHT22;37845;53.196;5.638;2022-10-13T16:36:41;14.80;99.90
51783;DHT22;37845;53.196;5.638;2022-10-13T16:39:07;14.80;99.90
51783;DHT22;37845;53.196;5.638;2022-10-13T16:41:33;14.80;99.90
51783;DHT22;37845;53.196;5.638;2022-10-13T16:43:59;14.90;99.90
51783;DHT22;37845;53.196;5.638;2022-10-13T16:46:24;14.90;99.90
51783;DHT22;37845;53.196;5.638;2022-10-13T16:48:50;14.80;99.90
51783;DHT22;37845;53.196;5.638;2022-10-13T16:51:20;14.70;99.90
51783;DHT22;37845;53.196;5.638;2022-10-13T16:53:46;14.80;99.90
51783;DHT22;37845;53.196;5.638;2022-10-13T16:56:12;14.80;99.90
51783;DHT22;37845;53.196;5.638;2022-10-13T16:58:38;14.70;99.90
51783;DHT22;37845;53.196;5.638;2022-10-13T17:01:09;14.60;99.90